sensor_id;sensor_type;location;lat;lon;timestamp;temperature;humidity
41904;DHT22;27586;51.124;4.182;2022-08-01T00:00:52;21.20;99.90
41904;DHT22;27586;51.124;4.182;2022-08-01T00:03:17;21.30;99.90
41904;DHT22;27586;51.124;4.182;2022-08-01T00:05:43;21.20;99.90
41904;DHT22;27586;51.124;4.182;2022-08-01T00:08:11;21.10;99.90
41904;DHT22;27586;51.124;4.182;2022-08-01T00:10:40;21.10;99.90
41904;DHT22;27586;51.124;4.182;2022-08-01T00:13:06;21.20;99.90
41904;DHT22;27586;51.124;4.182;2022-08-01T00:15:32;21.20;99.90
41904;DHT22;27586;51.124;4.182;2022-08-01T00:17:57;21.20;99.90
41904;DHT22;27586;51.124;4.182;2022-08-01T00:20:23;21.20;99.90
41904;DHT22;27586;51.124;4.182;2022-08-01T00:22:49;21.10;99.90
41904;DHT22;27586;51.124;4.182;2022-08-01T00:25:17;21.10;99.90
41904;DHT22;27586;51.124;4.182;2022-08-01T00:27:43;21.10;99.90
41904;DHT22;27586;51.124;4.182;2022-08-01T00:30:09;21.10;99.90
41904;DHT22;27586;51.124;4.182;2022-08-01T00:32:34;21.10;99.90
41904;DHT22;27586;51.124;4.182;2022-08-01T00:35:00;21.00;99.90
41904;DHT22;27586;51.124;4.182;2022-08-01T00:37:26;21.10;99.90
41904;DHT22;27586;51.124;4.182;2022-08-01T00:39:52;21.10;99.90
41904;DHT22;27586;51.124;4.182;2022-08-01T00:42:21;21.00;99.90
41904;DHT22;27586;51.124;4.182;2022-08-01T00:44:47;21.00;99.90
41904;DHT22;27586;51.124;4.182;2022-08-01T00:47:15;21.00;99.90
41904;DHT22;27586;51.124;4.182;2022-08-01T00:49:41;21.10;99.90
41904;DHT22;27586;51.124;4.182;2022-08-01T00:52:08;21.00;99.90
41904;DHT22;27586;51.124;4.182;2022-08-01T00:54:34;21.00;99.90
41904;DHT22;27586;51.124;4.182;2022-08-01T00:57:06;21.00;99.90
41904;DHT22;27586;51.124;4.182;2022-08-01T00:59:33;20.90;99.90
41904;DHT22;27586;51.124;4.182;2022-08-01T01:01:59;20.90;99.90
41904;DHT22;27586;51.124;4.182;2022-08-01T01:04:25;20.90;99.90
41904;DHT22;27586;51.124;4.182;2022-08-01T01:10:12;20.90;99.90
41904;DHT22;27586;51.124;4.182;2022-08-01T01:12:49;20.90;99.90
41904;DHT22;27586;51.124;4.182;2022-08-01T01:15:32;20.90;99.90
41904;DHT22;27586;51.124;4.182;2022-08-01T01:18:17;20.90;99.90
41904;DHT22;27586;51.124;4.182;2022-08-01T01:24:17;20.80;99.90
41904;DHT22;27586;51.124;4.182;2022-08-01T01:26:56;20.80;99.90
41904;DHT22;27586;51.124;4.182;2022-08-01T01:29:33;20.80;99.90
41904;DHT22;27586;51.124;4.182;2022-08-01T01:34:43;20.80;99.90
41904;DHT22;27586;51.124;4.182;2022-08-01T01:37:14;20.70;99.90
41904;DHT22;27586;51.124;4.182;2022-08-01T01:39:41;20.70;99.90
41904;DHT22;27586;51.124;4.182;2022-08-01T01:42:08;20.70;99.90
41904;DHT22;27586;51.124;4.182;2022-08-01T01:44:36;20.60;99.90
41904;DHT22;27586;51.124;4.182;2022-08-01T01:47:04;20.70;99.90
41904;DHT22;27586;51.124;4.182;2022-08-01T01:49:33;20.70;99.90
41904;DHT22;27586;51.124;4.182;2022-08-01T01:52:00;20.70;99.90
41904;DHT22;27586;51.124;4.182;2022-08-01T01:54:34;20.60;99.90
41904;DHT22;27586;51.124;4.182;2022-08-01T01:57:04;20.60;99.90
41904;DHT22;27586;51.124;4.182;2022-08-01T01:59:32;20.50;99.90
41904;DHT22;27586;51.124;4.182;2022-08-01T02:02:02;20.50;99.90
41904;DHT22;27586;51.124;4.182;2022-08-01T02:04:29;20.40;99.90
41904;DHT22;27586;51.124;4.182;2022-08-01T02:06:56;20.50;99.90
41904;DHT22;27586;51.124;4.182;2022-08-01T02:09:23;20.40;99.90
41904;DHT22;27586;51.124;4.182;2022-08-01T02:11:53;20.40;99.90
41904;DHT22;27586;51.124;4.182;2022-08-01T02:14:23;20.40;99.90
41904;DHT22;27586;51.124;4.182;2022-08-01T02:16:50;20.30;99.90
41904;DHT22;27586;51.124;4.182;2022-08-01T02:19:19;20.10;99.90
41904;DHT22;27586;51.124;4.182;2022-08-01T02:22:18;19.80;99.90
41904;DHT22;27586;51.124;4.182;2022-08-01T02:24:52;19.70;99.90
41904;DHT22;27586;51.124;4.182;2022-08-01T02:27:34;19.50;99.90
41904;DHT22;27586;51.124;4.182;2022-08-01T02:30:06;19.50;99.90
41904;DHT22;27586;51.124;4.182;2022-08-01T02:32:40;19.40;99.90
41904;DHT22;27586;51.124;4.182;2022-08-01T02:35:14;19.40;99.90
41904;DHT22;27586;51.124;4.182;2022-08-01T02:37:45;19.30;99.90
41904;DHT22;27586;51.124;4.182;2022-08-01T02:40:12;19.40;99.90
41904;DHT22;27586;51.124;4.182;2022-08-01T02:42:39;19.30;99.90
41904;DHT22;27586;51.124;4.182;2022-08-01T02:45:06;19.30;99.90
41904;DHT22;27586;51.124;4.182;2022-08-01T02:47:35;19.40;99.90
41904;DHT22;27586;51.124;4.182;2022-08-01T02:50:02;19.50;99.90
41904;DHT22;27586;51.124;4.182;2022-08-01T02:52:28;19.60;99.90
41904;DHT22;27586;51.124;4.182;2022-08-01T02:54:55;19.70;99.90
41904;DHT22;27586;51.124;4.182;2022-08-01T02:57:22;19.70;99.90
41904;DHT22;27586;51.124;4.182;2022-08-01T02:59:49;19.70;99.90
41904;DHT22;27586;51.124;4.182;2022-08-01T03:02:16;19.70;99.90
41904;DHT22;27586;51.124;4.182;2022-08-01T03:04:44;19.70;99.90
41904;DHT22;27586;51.124;4.182;2022-08-01T03:07:12;19.80;99.90
41904;DHT22;27586;51.124;4.182;2022-08-01T03:09:44;19.70;99.90
41904;DHT22;27586;51.124;4.182;2022-08-01T03:12:18;19.60;99.90
41904;DHT22;27586;51.124;4.182;2022-08-01T03:14:46;19.50;99.90
41904;DHT22;27586;51.124;4.182;2022-08-01T03:17:12;19.50;99.90
41904;DHT22;27586;51.124;4.182;2022-08-01T03:19:40;19.60;99.90
41904;DHT22;27586;51.124;4.182;2022-08-01T03:22:11;19.70;99.90
41904;DHT22;27586;51.124;4.182;2022-08-01T03:24:39;19.70;99.90
41904;DHT22;27586;51.124;4.182;2022-08-01T03:27:07;19.70;99.90
41904;DHT22;27586;51.124;4.182;2022-08-01T03:29:34;19.70;99.90
41904;DHT22;27586;51.124;4.182;2022-08-01T03:32:01;19.70;99.90
41904;DHT22;27586;51.124;4.182;2022-08-01T03:34:28;19.70;99.90
41904;DHT22;27586;51.124;4.182;2022-08-01T03:37:29;19.80;99.90
41904;DHT22;27586;51.124;4.182;2022-08-01T03:40:04;19.70;99.90
41904;DHT22;27586;51.124;4.182;2022-08-01T03:42:41;19.70;99.90
41904;DHT22;27586;51.124;4.182;2022-08-01T03:45:09;19.70;99.90
41904;DHT22;27586;51.124;4.182;2022-08-01T03:47:36;19.60;99.90
41904;DHT22;27586;51.124;4.182;2022-08-01T03:50:04;19.60;99.90
41904;DHT22;27586;51.124;4.182;2022-08-01T03:52:32;19.60;99.90
41904;DHT22;27586;51.124;4.182;2022-08-01T03:55:03;19.60;99.90
41904;DHT22;27586;51.124;4.182;2022-08-01T03:57:31;19.60;99.90
41904;DHT22;27586;51.124;4.182;2022-08-01T03:59:58;19.50;99.90
41904;DHT22;27586;51.124;4.182;2022-08-01T04:02:27;19.50;99.90
41904;DHT22;27586;51.124;4.182;2022-08-01T04:04:54;19.50;99.90
41904;DHT22;27586;51.124;4.182;2022-08-01T04:07:31;19.40;99.90
41904;DHT22;27586;51.124;4.182;2022-08-01T04:09:58;19.40;99.90
41904;DHT22;27586;51.124;4.182;2022-08-01T04:12:24;19.40;99.90
41904;DHT22;27586;51.124;4.182;2022-08-01T04:14:50;19.40;99.90
41904;DHT22;27586;51.124;4.182;2022-08-01T04:17:16;19.30;99.90
41904;DHT22;27586;51.124;4.182;2022-08-01T04:19:43;19.40;99.90
41904;DHT22;27586;51.124;4.182;2022-08-01T04:22:10;19.40;99.90
41904;DHT22;27586;51.124;4.182;2022-08-01T04:24:41;19.40;99.90
41904;DHT22;27586;51.124;4.182;2022-08-01T04:27:13;19.40;99.90
41904;DHT22;27586;51.124;4.182;2022-08-01T04:29:42;19.50;99.90
41904;DHT22;27586;51.124;4.182;2022-08-01T04:32:11;19.50;99.90
41904;DHT22;27586;51.124;4.182;2022-08-01T04:34:41;19.50;99.90
41904;DHT22;27586;51.124;4.182;2022-08-01T04:37:11;19.50;99.90
41904;DHT22;27586;51.124;4.182;2022-08-01T04:39:37;19.50;99.90
41904;DHT22;27586;51.124;4.182;2022-08-01T04:42:05;19.50;99.90
41904;DHT22;27586;51.124;4.182;2022-08-01T04:44:32;19.50;99.90
41904;DHT22;27586;51.124;4.182;2022-08-01T04:47:02;19.50;99.90
41904;DHT22;27586;51.124;4.182;2022-08-01T04:49:32;19.50;99.90
41904;DHT22;27586;51.124;4.182;2022-08-01T04:51:58;19.50;99.90
41904;DHT22;27586;51.124;4.182;2022-08-01T04:54:26;19.50;99.90
41904;DHT22;27586;51.124;4.182;2022-08-01T04:56:53;19.50;99.90
41904;DHT22;27586;51.124;4.182;2022-08-01T04:59:24;19.40;99.90
41904;DHT22;27586;51.124;4.182;2022-08-01T05:02:16;19.30;99.90
41904;DHT22;27586;51.124;4.182;2022-08-01T05:04:42;19.20;99.90
41904;DHT22;27586;51.124;4.182;2022-08-01T05:07:09;19.20;99.90
41904;DHT22;27586;51.124;4.182;2022-08-01T05:09:36;19.20;99.90
41904;DHT22;27586;51.124;4.182;2022-08-01T05:12:03;19.30;99.90
41904;DHT22;27586;51.124;4.182;2022-08-01T05:14:29;19.30;99.90
41904;DHT22;27586;51.124;4.182;2022-08-01T05:16:58;19.30;99.90
41904;DHT22;27586;51.124;4.182;2022-08-01T05:19:25;19.30;99.90
41904;DHT22;27586;51.124;4.182;2022-08-01T05:21:50;19.40;99.90
41904;DHT22;27586;51.124;4.182;2022-08-01T05:24:17;19.40;99.90
41904;DHT22;27586;51.124;4.182;2022-08-01T05:26:43;19.50;99.90
41904;DHT22;27586;51.124;4.182;2022-08-01T05:29:08;19.50;99.90
41904;DHT22;27586;51.124;4.182;2022-08-01T05:31:34;19.60;99.90
41904;DHT22;27586;51.124;4.182;2022-08-01T05:34:01;19.60;99.90
41904;DHT22;27586;51.124;4.182;2022-08-01T05:36:27;19.70;99.90
41904;DHT22;27586;51.124;4.182;2022-08-01T05:38:56;19.70;99.90
41904;DHT22;27586;51.124;4.182;2022-08-01T05:41:21;19.70;99.90
41904;DHT22;27586;51.124;4.182;2022-08-01T05:43:47;19.70;99.90
41904;DHT22;27586;51.124;4.182;2022-08-01T05:46:13;19.90;99.90
41904;DHT22;27586;51.124;4.182;2022-08-01T05:48:39;20.10;99.90
41904;DHT22;27586;51.124;4.182;2022-08-01T05:51:04;20.10;99.90
41904;DHT22;27586;51.124;4.182;2022-08-01T05:53:30;20.10;99.90
41904;DHT22;27586;51.124;4.182;2022-08-01T05:55:56;20.10;99.90
41904;DHT22;27586;51.124;4.182;2022-08-01T05:58:22;20.10;99.90
41904;DHT22;27586;51.124;4.182;2022-08-01T06:00:47;20.10;99.90
41904;DHT22;27586;51.124;4.182;2022-08-01T06:03:13;20.10;99.90
41904;DHT22;27586;51.124;4.182;2022-08-01T06:05:40;20.10;99.90
41904;DHT22;27586;51.124;4.182;2022-08-01T06:08:05;20.10;99.90
41904;DHT22;27586;51.124;4.182;2022-08-01T06:10:31;20.20;99.90
41904;DHT22;27586;51.124;4.182;2022-08-01T06:12:57;20.20;99.90
41904;DHT22;27586;51.124;4.182;2022-08-01T06:15:23;20.30;99.90
41904;DHT22;27586;51.124;4.182;2022-08-01T06:17:48;20.50;99.90
41904;DHT22;27586;51.124;4.182;2022-08-01T06:20:14;20.60;99.90
41904;DHT22;27586;51.124;4.182;2022-08-01T06:22:40;20.60;99.90
41904;DHT22;27586;51.124;4.182;2022-08-01T06:25:07;20.50;99.90
41904;DHT22;27586;51.124;4.182;2022-08-01T06:27:35;20.60;99.90
41904;DHT22;27586;51.124;4.182;2022-08-01T06:30:01;20.70;99.90
41904;DHT22;27586;51.124;4.182;2022-08-01T06:32:27;20.80;99.90
41904;DHT22;27586;51.124;4.182;2022-08-01T06:34:53;20.80;99.90
41904;DHT22;27586;51.124;4.182;2022-08-01T06:37:18;20.80;99.90
41904;DHT22;27586;51.124;4.182;2022-08-01T06:39:44;21.00;99.90
41904;DHT22;27586;51.124;4.182;2022-08-01T06:42:10;20.70;99.90
41904;DHT22;27586;51.124;4.182;2022-08-01T06:44:36;20.60;99.90
41904;DHT22;27586;51.124;4.182;2022-08-01T06:47:01;20.60;99.90
41904;DHT22;27586;51.124;4.182;2022-08-01T06:49:27;20.80;99.90
41904;DHT22;27586;51.124;4.182;2022-08-01T06:51:53;21.00;99.90
41904;DHT22;27586;51.124;4.182;2022-08-01T06:54:19;21.00;99.90
41904;DHT22;27586;51.124;4.182;2022-08-01T06:56:44;21.10;99.90
41904;DHT22;27586;51.124;4.182;2022-08-01T06:59:10;21.20;99.90
41904;DHT22;27586;51.124;4.182;2022-08-01T07:01:36;21.10;99.90
41904;DHT22;27586;51.124;4.182;2022-08-01T07:04:02;21.10;99.90
41904;DHT22;27586;51.124;4.182;2022-08-01T07:06:28;21.20;99.90
41904;DHT22;27586;51.124;4.182;2022-08-01T07:08:54;21.10;99.90
41904;DHT22;27586;51.124;4.182;2022-08-01T07:11:21;21.10;99.90
41904;DHT22;27586;51.124;4.182;2022-08-01T07:13:47;21.20;99.90
41904;DHT22;27586;51.124;4.182;2022-08-01T07:16:13;21.20;99.90
41904;DHT22;27586;51.124;4.182;2022-08-01T07:18:39;21.60;99.90
41904;DHT22;27586;51.124;4.182;2022-08-01T07:21:05;21.80;99.90
41904;DHT22;27586;51.124;4.182;2022-08-01T07:23:30;22.00;99.90
41904;DHT22;27586;51.124;4.182;2022-08-01T07:25:56;21.80;99.90
41904;DHT22;27586;51.124;4.182;2022-08-01T07:28:22;21.80;99.90
41904;DHT22;27586;51.124;4.182;2022-08-01T07:30:47;21.60;99.90
41904;DHT22;27586;51.124;4.182;2022-08-01T07:33:13;21.50;99.90
41904;DHT22;27586;51.124;4.182;2022-08-01T07:35:39;21.90;99.90
41904;DHT22;27586;51.124;4.182;2022-08-01T07:38:06;22.20;99.90
41904;DHT22;27586;51.124;4.182;2022-08-01T07:40:32;22.50;99.90
41904;DHT22;27586;51.124;4.182;2022-08-01T07:42:57;22.50;99.90
41904;DHT22;27586;51.124;4.182;2022-08-01T07:45:23;22.70;99.90
41904;DHT22;27586;51.124;4.182;2022-08-01T07:47:49;22.90;99.90
41904;DHT22;27586;51.124;4.182;2022-08-01T07:50:17;23.10;99.90
41904;DHT22;27586;51.124;4.182;2022-08-01T07:52:43;23.40;99.90
41904;DHT22;27586;51.124;4.182;2022-08-01T07:55:10;23.60;99.90
41904;DHT22;27586;51.124;4.182;2022-08-01T07:57:36;23.70;99.90
41904;DHT22;27586;51.124;4.182;2022-08-01T08:00:04;23.80;99.90
41904;DHT22;27586;51.124;4.182;2022-08-01T08:02:31;24.10;99.90
41904;DHT22;27586;51.124;4.182;2022-08-01T08:04:56;24.10;99.90
41904;DHT22;27586;51.124;4.182;2022-08-01T08:07:22;23.70;99.90
41904;DHT22;27586;51.124;4.182;2022-08-01T08:09:48;23.40;99.90
41904;DHT22;27586;51.124;4.182;2022-08-01T08:12:14;23.30;99.90
41904;DHT22;27586;51.124;4.182;2022-08-01T08:14:39;23.00;99.90
41904;DHT22;27586;51.124;4.182;2022-08-01T08:17:06;22.70;99.90
41904;DHT22;27586;51.124;4.182;2022-08-01T08:19:32;22.40;99.90
41904;DHT22;27586;51.124;4.182;2022-08-01T08:21:59;22.30;99.90
41904;DHT22;27586;51.124;4.182;2022-08-01T08:24:26;22.30;99.90
41904;DHT22;27586;51.124;4.182;2022-08-01T08:27:00;22.50;99.90
41904;DHT22;27586;51.124;4.182;2022-08-01T08:29:27;22.80;99.90
41904;DHT22;27586;51.124;4.182;2022-08-01T08:31:55;22.80;99.90
41904;DHT22;27586;51.124;4.182;2022-08-01T08:34:21;22.70;99.90
41904;DHT22;27586;51.124;4.182;2022-08-01T08:36:48;22.90;99.90
41904;DHT22;27586;51.124;4.182;2022-08-01T08:39:14;23.20;99.90
41904;DHT22;27586;51.124;4.182;2022-08-01T08:41:40;23.20;99.90
41904;DHT22;27586;51.124;4.182;2022-08-01T08:44:07;22.90;99.90
41904;DHT22;27586;51.124;4.182;2022-08-01T08:46:34;23.30;99.90
41904;DHT22;27586;51.124;4.182;2022-08-01T08:49:05;23.40;99.90
41904;DHT22;27586;51.124;4.182;2022-08-01T08:51:33;23.50;99.90
41904;DHT22;27586;51.124;4.182;2022-08-01T08:54:00;23.60;99.90
41904;DHT22;27586;51.124;4.182;2022-08-01T08:56:28;23.60;99.90
41904;DHT22;27586;51.124;4.182;2022-08-01T08:58:59;23.60;99.90
41904;DHT22;27586;51.124;4.182;2022-08-01T09:01:25;23.40;99.90
41904;DHT22;27586;51.124;4.182;2022-08-01T09:03:51;23.80;99.90
41904;DHT22;27586;51.124;4.182;2022-08-01T09:06:19;24.20;99.90
41904;DHT22;27586;51.124;4.182;2022-08-01T09:08:45;24.30;99.90
41904;DHT22;27586;51.124;4.182;2022-08-01T09:11:11;23.70;99.90
41904;DHT22;27586;51.124;4.182;2022-08-01T09:13:36;23.50;99.90
41904;DHT22;27586;51.124;4.182;2022-08-01T09:16:04;23.70;99.90
41904;DHT22;27586;51.124;4.182;2022-08-01T09:18:39;24.20;99.90
41904;DHT22;27586;51.124;4.182;2022-08-01T09:24:04;24.90;99.90
41904;DHT22;27586;51.124;4.182;2022-08-01T09:26:36;24.80;99.90
41904;DHT22;27586;51.124;4.182;2022-08-01T09:29:04;25.10;99.90
41904;DHT22;27586;51.124;4.182;2022-08-01T09:31:43;24.50;99.90
41904;DHT22;27586;51.124;4.182;2022-08-01T09:34:10;24.10;99.90
41904;DHT22;27586;51.124;4.182;2022-08-01T09:36:52;24.20;99.90
41904;DHT22;27586;51.124;4.182;2022-08-01T09:39:20;24.40;99.90
41904;DHT22;27586;51.124;4.182;2022-08-01T09:41:47;24.40;99.90
41904;DHT22;27586;51.124;4.182;2022-08-01T09:44:14;24.50;99.90
41904;DHT22;27586;51.124;4.182;2022-08-01T09:49:31;24.70;99.90
41904;DHT22;27586;51.124;4.182;2022-08-01T09:52:00;24.50;99.90
41904;DHT22;27586;51.124;4.182;2022-08-01T09:54:34;24.40;99.90
41904;DHT22;27586;51.124;4.182;2022-08-01T09:57:17;24.40;99.90
41904;DHT22;27586;51.124;4.182;2022-08-01T09:59:45;24.30;99.90
41904;DHT22;27586;51.124;4.182;2022-08-01T10:02:12;24.20;99.90
41904;DHT22;27586;51.124;4.182;2022-08-01T10:04:51;23.80;99.90
41904;DHT22;27586;51.124;4.182;2022-08-01T10:07:17;23.80;99.90
41904;DHT22;27586;51.124;4.182;2022-08-01T10:09:44;24.30;99.90
41904;DHT22;27586;51.124;4.182;2022-08-01T10:12:12;24.50;99.90
41904;DHT22;27586;51.124;4.182;2022-08-01T10:14:38;24.80;99.90
41904;DHT22;27586;51.124;4.182;2022-08-01T10:17:07;25.00;99.90
41904;DHT22;27586;51.124;4.182;2022-08-01T10:19:35;24.80;99.90
41904;DHT22;27586;51.124;4.182;2022-08-01T10:22:01;24.70;99.90
41904;DHT22;27586;51.124;4.182;2022-08-01T10:24:29;24.60;99.90
41904;DHT22;27586;51.124;4.182;2022-08-01T10:27:07;24.60;99.90
41904;DHT22;27586;51.124;4.182;2022-08-01T10:29:55;24.80;99.90
41904;DHT22;27586;51.124;4.182;2022-08-01T10:32:22;25.00;99.90
41904;DHT22;27586;51.124;4.182;2022-08-01T10:34:49;25.10;99.80
41904;DHT22;27586;51.124;4.182;2022-08-01T10:37:16;25.00;99.90
41904;DHT22;27586;51.124;4.182;2022-08-01T10:39:43;25.20;99.90
41904;DHT22;27586;51.124;4.182;2022-08-01T10:42:11;25.30;99.40
41904;DHT22;27586;51.124;4.182;2022-08-01T10:44:37;25.50;99.70
41904;DHT22;27586;51.124;4.182;2022-08-01T10:47:13;25.20;99.50
41904;DHT22;27586;51.124;4.182;2022-08-01T10:50:07;25.10;99.10
41904;DHT22;27586;51.124;4.182;2022-08-01T10:52:37;24.90;99.40
41904;DHT22;27586;51.124;4.182;2022-08-01T10:55:07;24.80;99.90
41904;DHT22;27586;51.124;4.182;2022-08-01T10:57:47;25.10;99.70
41904;DHT22;27586;51.124;4.182;2022-08-01T11:00:21;25.40;99.10
41904;DHT22;27586;51.124;4.182;2022-08-01T11:03:00;25.60;98.70
41904;DHT22;27586;51.124;4.182;2022-08-01T11:05:30;25.50;98.50
41904;DHT22;27586;51.124;4.182;2022-08-01T11:07:58;25.00;98.30
41904;DHT22;27586;51.124;4.182;2022-08-01T11:12:58;25.00;99.20
41904;DHT22;27586;51.124;4.182;2022-08-01T11:15:26;24.90;99.50
41904;DHT22;27586;51.124;4.182;2022-08-01T11:17:56;25.30;99.80
41904;DHT22;27586;51.124;4.182;2022-08-01T11:20:33;25.50;99.50
41904;DHT22;27586;51.124;4.182;2022-08-01T11:30:47;25.00;98.00
41904;DHT22;27586;51.124;4.182;2022-08-01T11:33:15;25.00;98.30
41904;DHT22;27586;51.124;4.182;2022-08-01T11:38:42;25.20;98.30
41904;DHT22;27586;51.124;4.182;2022-08-01T11:44:05;25.40;97.60
41904;DHT22;27586;51.124;4.182;2022-08-01T11:46:54;25.70;97.80
41904;DHT22;27586;51.124;4.182;2022-08-01T11:54:39;26.20;97.50
41904;DHT22;27586;51.124;4.182;2022-08-01T11:57:11;25.80;97.40
41904;DHT22;27586;51.124;4.182;2022-08-01T11:59:49;25.70;96.90
41904;DHT22;27586;51.124;4.182;2022-08-01T12:02:21;25.30;97.40
41904;DHT22;27586;51.124;4.182;2022-08-01T12:05:11;25.30;97.80
41904;DHT22;27586;51.124;4.182;2022-08-01T12:07:43;25.40;97.20
41904;DHT22;27586;51.124;4.182;2022-08-01T12:10:11;25.60;97.10
41904;DHT22;27586;51.124;4.182;2022-08-01T12:12:45;25.60;96.70
41904;DHT22;27586;51.124;4.182;2022-08-01T12:15:12;25.40;97.10
41904;DHT22;27586;51.124;4.182;2022-08-01T12:20:08;25.80;96.70
41904;DHT22;27586;51.124;4.182;2022-08-01T12:22:35;25.80;96.80
41904;DHT22;27586;51.124;4.182;2022-08-01T12:25:14;25.60;96.10
41904;DHT22;27586;51.124;4.182;2022-08-01T12:27:41;25.50;96.00
41904;DHT22;27586;51.124;4.182;2022-08-01T12:30:10;25.30;96.70
41904;DHT22;27586;51.124;4.182;2022-08-01T12:32:38;25.10;95.60
41904;DHT22;27586;51.124;4.182;2022-08-01T12:35:07;25.10;95.90
41904;DHT22;27586;51.124;4.182;2022-08-01T12:37:47;25.10;95.70
41904;DHT22;27586;51.124;4.182;2022-08-01T12:40:16;25.10;95.60
41904;DHT22;27586;51.124;4.182;2022-08-01T12:42:47;25.30;96.00
41904;DHT22;27586;51.124;4.182;2022-08-01T12:45:16;25.50;96.10
41904;DHT22;27586;51.124;4.182;2022-08-01T12:47:43;25.70;95.50
41904;DHT22;27586;51.124;4.182;2022-08-01T12:50:16;26.00;94.50
41904;DHT22;27586;51.124;4.182;2022-08-01T12:52:42;26.20;93.30
41904;DHT22;27586;51.124;4.182;2022-08-01T12:55:25;26.00;93.90
41904;DHT22;27586;51.124;4.182;2022-08-01T12:58:12;26.40;94.50
41904;DHT22;27586;51.124;4.182;2022-08-01T13:00:39;26.50;93.70
41904;DHT22;27586;51.124;4.182;2022-08-01T13:03:18;26.50;93.90
41904;DHT22;27586;51.124;4.182;2022-08-01T13:05:53;26.50;93.00
41904;DHT22;27586;51.124;4.182;2022-08-01T13:08:23;26.50;92.70
41904;DHT22;27586;51.124;4.182;2022-08-01T13:10:50;26.80;92.10
41904;DHT22;27586;51.124;4.182;2022-08-01T13:13:18;26.70;92.10
41904;DHT22;27586;51.124;4.182;2022-08-01T13:15:45;27.10;92.50
41904;DHT22;27586;51.124;4.182;2022-08-01T13:18:29;26.80;92.30
41904;DHT22;27586;51.124;4.182;2022-08-01T13:21:12;26.40;93.20
41904;DHT22;27586;51.124;4.182;2022-08-01T13:23:41;26.90;93.10
41904;DHT22;27586;51.124;4.182;2022-08-01T13:26:07;27.00;93.30
41904;DHT22;27586;51.124;4.182;2022-08-01T13:28:33;27.10;92.30
41904;DHT22;27586;51.124;4.182;2022-08-01T13:31:05;26.80;91.10
41904;DHT22;27586;51.124;4.182;2022-08-01T13:33:44;26.70;91.70
41904;DHT22;27586;51.124;4.182;2022-08-01T13:36:10;27.00;91.80
41904;DHT22;27586;51.124;4.182;2022-08-01T13:38:36;27.10;91.30
41904;DHT22;27586;51.124;4.182;2022-08-01T13:41:21;26.80;91.60
41904;DHT22;27586;51.124;4.182;2022-08-01T13:43:46;26.90;91.90
41904;DHT22;27586;51.124;4.182;2022-08-01T13:46:12;27.20;91.30
41904;DHT22;27586;51.124;4.182;2022-08-01T13:48:38;26.90;90.40
41904;DHT22;27586;51.124;4.182;2022-08-01T13:51:03;27.00;90.30
41904;DHT22;27586;51.124;4.182;2022-08-01T13:53:29;27.10;90.80
41904;DHT22;27586;51.124;4.182;2022-08-01T13:55:55;27.50;90.70
41904;DHT22;27586;51.124;4.182;2022-08-01T13:58:21;27.30;88.60
41904;DHT22;27586;51.124;4.182;2022-08-01T14:00:50;27.20;90.20
41904;DHT22;27586;51.124;4.182;2022-08-01T14:03:19;27.50;90.00
41904;DHT22;27586;51.124;4.182;2022-08-01T14:05:45;27.50;89.60
41904;DHT22;27586;51.124;4.182;2022-08-01T14:08:11;27.60;90.20
41904;DHT22;27586;51.124;4.182;2022-08-01T14:10:37;27.50;91.30
41904;DHT22;27586;51.124;4.182;2022-08-01T14:13:03;27.30;90.80
41904;DHT22;27586;51.124;4.182;2022-08-01T14:15:29;26.70;90.60
41904;DHT22;27586;51.124;4.182;2022-08-01T14:17:55;26.50;91.00
41904;DHT22;27586;51.124;4.182;2022-08-01T14:20:21;26.70;91.30
41904;DHT22;27586;51.124;4.182;2022-08-01T14:22:47;26.80;91.20
41904;DHT22;27586;51.124;4.182;2022-08-01T14:25:13;26.50;90.10
41904;DHT22;27586;51.124;4.182;2022-08-01T14:27:39;26.30;90.60
41904;DHT22;27586;51.124;4.182;2022-08-01T14:30:07;26.40;90.70
41904;DHT22;27586;51.124;4.182;2022-08-01T14:32:33;26.50;89.60
41904;DHT22;27586;51.124;4.182;2022-08-01T14:35:00;26.40;90.40
41904;DHT22;27586;51.124;4.182;2022-08-01T14:37:26;26.60;90.30
41904;DHT22;27586;51.124;4.182;2022-08-01T14:39:53;26.80;88.60
41904;DHT22;27586;51.124;4.182;2022-08-01T14:42:19;27.00;87.30
41904;DHT22;27586;51.124;4.182;2022-08-01T14:44:45;27.20;88.50
41904;DHT22;27586;51.124;4.182;2022-08-01T14:47:10;26.80;87.20
41904;DHT22;27586;51.124;4.182;2022-08-01T14:49:36;26.60;85.60
41904;DHT22;27586;51.124;4.182;2022-08-01T14:52:02;26.20;85.10
41904;DHT22;27586;51.124;4.182;2022-08-01T14:54:27;26.00;86.40
41904;DHT22;27586;51.124;4.182;2022-08-01T14:56:53;26.10;86.80
41904;DHT22;27586;51.124;4.182;2022-08-01T14:59:21;26.20;87.60
41904;DHT22;27586;51.124;4.182;2022-08-01T15:01:47;26.10;88.00
41904;DHT22;27586;51.124;4.182;2022-08-01T15:04:12;26.20;87.60
41904;DHT22;27586;51.124;4.182;2022-08-01T15:06:38;26.10;87.10
41904;DHT22;27586;51.124;4.182;2022-08-01T15:09:04;25.90;86.90
41904;DHT22;27586;51.124;4.182;2022-08-01T15:11:29;25.70;87.50
41904;DHT22;27586;51.124;4.182;2022-08-01T15:13:55;25.80;89.10
41904;DHT22;27586;51.124;4.182;2022-08-01T15:16:39;25.80;88.20
41904;DHT22;27586;51.124;4.182;2022-08-01T15:19:05;25.70;88.60
41904;DHT22;27586;51.124;4.182;2022-08-01T15:21:34;25.50;88.90
41904;DHT22;27586;51.124;4.182;2022-08-01T15:23:59;25.70;89.40
41904;DHT22;27586;51.124;4.182;2022-08-01T15:26:25;25.80;89.50
41904;DHT22;27586;51.124;4.182;2022-08-01T15:28:52;25.70;89.50
41904;DHT22;27586;51.124;4.182;2022-08-01T15:31:18;25.70;89.90
41904;DHT22;27586;51.124;4.182;2022-08-01T15:33:44;25.80;90.30
41904;DHT22;27586;51.124;4.182;2022-08-01T15:36:09;25.90;90.40
41904;DHT22;27586;51.124;4.182;2022-08-01T15:38:35;25.90;90.80
41904;DHT22;27586;51.124;4.182;2022-08-01T15:41:01;25.90;91.10
41904;DHT22;27586;51.124;4.182;2022-08-01T15:43:27;25.60;90.50
41904;DHT22;27586;51.124;4.182;2022-08-01T15:45:56;25.50;90.40
41904;DHT22;27586;51.124;4.182;2022-08-01T15:48:25;25.40;90.00
41904;DHT22;27586;51.124;4.182;2022-08-01T15:50:51;25.60;90.40
41904;DHT22;27586;51.124;4.182;2022-08-01T15:53:17;25.70;89.80
41904;DHT22;27586;51.124;4.182;2022-08-01T15:55:45;25.60;89.20
41904;DHT22;27586;51.124;4.182;2022-08-01T15:58:11;25.60;88.70
41904;DHT22;27586;51.124;4.182;2022-08-01T16:00:37;25.60;89.00
41904;DHT22;27586;51.124;4.182;2022-08-01T16:03:02;25.40;88.00
41904;DHT22;27586;51.124;4.182;2022-08-01T16:05:28;25.30;88.70
41904;DHT22;27586;51.124;4.182;2022-08-01T16:07:54;25.30;88.40
41904;DHT22;27586;51.124;4.182;2022-08-01T16:10:19;25.30;88.30
41904;DHT22;27586;51.124;4.182;2022-08-01T16:12:45;25.20;87.70
41904;DHT22;27586;51.124;4.182;2022-08-01T16:15:11;25.30;87.80
41904;DHT22;27586;51.124;4.182;2022-08-01T16:17:36;25.30;87.60